sensor_id;sensor_type;location;lat;lon;timestamp;P1;durP1;ratioP1;P2;durP2;ratioP2
37164;SDS011;23057;48.554;14.454;2024-03-02T00:00:06;51.22;;;22.83;;
37164;SDS011;23057;48.554;14.454;2024-03-02T00:02:41;43.42;;;19.38;;
37164;SDS011;23057;48.554;14.454;2024-03-02T00:07:55;51.67;;;22.23;;
37164;SDS011;23057;48.554;14.454;2024-03-02T00:10:37;52.42;;;22.73;;
37164;SDS011;23057;48.554;14.454;2024-03-02T00:13:09;50.83;;;21.70;;
37164;SDS011;23057;48.554;14.454;2024-03-02T00:16:01;53.15;;;21.23;;
37164;SDS011;23057;48.554;14.454;2024-03-02T00:18:35;48.28;;;21.83;;
37164;SDS011;23057;48.554;14.454;2024-03-02T00:21:07;50.72;;;21.38;;
37164;SDS011;23057;48.554;14.454;2024-03-02T00:23:39;54.53;;;20.45;;
37164;SDS011;23057;48.554;14.454;2024-03-02T00:26:11;46.17;;;19.90;;
37164;SDS011;23057;48.554;14.454;2024-03-02T00:28:43;44.08;;;20.27;;
37164;SDS011;23057;48.554;14.454;2024-03-02T00:31:15;47.70;;;22.08;;
37164;SDS011;23057;48.554;14.454;2024-03-02T00:33:50;47.75;;;19.83;;
37164;SDS011;23057;48.554;14.454;2024-03-02T00:36:24;45.88;;;20.65;;
37164;SDS011;23057;48.554;14.454;2024-03-02T00:38:57;44.53;;;19.45;;
37164;SDS011;23057;48.554;14.454;2024-03-02T00:41:31;48.30;;;21.73;;
37164;SDS011;23057;48.554;14.454;2024-03-02T00:44:03;56.83;;;23.85;;
37164;SDS011;23057;48.554;14.454;2024-03-02T00:46:38;54.75;;;22.23;;
37164;SDS011;23057;48.554;14.454;2024-03-02T00:51:51;46.05;;;20.60;;
37164;SDS011;23057;48.554;14.454;2024-03-02T00:54:25;44.95;;;19.75;;
37164;SDS011;23057;48.554;14.454;2024-03-02T00:56:58;51.28;;;22.90;;
37164;SDS011;23057;48.554;14.454;2024-03-02T00:59:29;48.53;;;21.35;;
37164;SDS011;23057;48.554;14.454;2024-03-02T01:02:01;49.17;;;23.00;;
37164;SDS011;23057;48.554;14.454;2024-03-02T01:04:32;47.75;;;21.98;;
37164;SDS011;23057;48.554;14.454;2024-03-02T01:07:03;48.55;;;23.75;;
37164;SDS011;23057;48.554;14.454;2024-03-02T01:09:34;50.35;;;21.15;;
37164;SDS011;23057;48.554;14.454;2024-03-02T01:12:05;42.80;;;19.27;;
37164;SDS011;23057;48.554;14.454;2024-03-02T01:14:37;52.10;;;22.98;;
37164;SDS011;23057;48.554;14.454;2024-03-02T01:17:08;67.93;;;23.05;;
37164;SDS011;23057;48.554;14.454;2024-03-02T01:19:39;51.35;;;23.60;;
37164;SDS011;23057;48.554;14.454;2024-03-02T01:22:12;51.35;;;21.00;;
37164;SDS011;23057;48.554;14.454;2024-03-02T01:24:43;52.42;;;22.75;;
37164;SDS011;23057;48.554;14.454;2024-03-02T01:27:13;53.08;;;23.77;;
37164;SDS011;23057;48.554;14.454;2024-03-02T01:29:44;64.18;;;22.42;;
37164;SDS011;23057;48.554;14.454;2024-03-02T01:32:15;49.78;;;23.23;;
37164;SDS011;23057;48.554;14.454;2024-03-02T01:34:46;67.30;;;21.55;;
37164;SDS011;23057;48.554;14.454;2024-03-02T01:37:17;80.50;;;25.40;;
37164;SDS011;23057;48.554;14.454;2024-03-02T01:39:48;52.03;;;22.10;;
37164;SDS011;23057;48.554;14.454;2024-03-02T01:42:18;92.72;;;25.77;;
37164;SDS011;23057;48.554;14.454;2024-03-02T01:44:50;77.15;;;24.10;;
37164;SDS011;23057;48.554;14.454;2024-03-02T01:47:21;51.47;;;21.13;;
37164;SDS011;23057;48.554;14.454;2024-03-02T01:49:52;93.82;;;22.05;;
37164;SDS011;23057;48.554;14.454;2024-03-02T01:52:23;57.30;;;22.52;;
37164;SDS011;23057;48.554;14.454;2024-03-02T01:54:54;51.58;;;21.83;;
37164;SDS011;23057;48.554;14.454;2024-03-02T01:57:26;61.42;;;21.25;;
37164;SDS011;23057;48.554;14.454;2024-03-02T01:59:56;49.05;;;20.17;;
37164;SDS011;23057;48.554;14.454;2024-03-02T02:02:28;50.45;;;21.17;;
37164;SDS011;23057;48.554;14.454;2024-03-02T02:04:59;62.40;;;23.55;;
37164;SDS011;23057;48.554;14.454;2024-03-02T02:07:30;69.35;;;25.15;;
37164;SDS011;23057;48.554;14.454;2024-03-02T02:10:01;81.97;;;28.15;;
37164;SDS011;23057;48.554;14.454;2024-03-02T02:12:32;63.88;;;23.90;;
37164;SDS011;23057;48.554;14.454;2024-03-02T02:15:04;50.00;;;20.35;;
37164;SDS011;23057;48.554;14.454;2024-03-02T02:17:58;67.75;;;23.45;;
37164;SDS011;23057;48.554;14.454;2024-03-02T02:20:29;57.83;;;23.20;;
37164;SDS011;23057;48.554;14.454;2024-03-02T02:23:01;69.25;;;27.95;;
37164;SDS011;23057;48.554;14.454;2024-03-02T02:25:35;71.13;;;30.42;;
37164;SDS011;23057;48.554;14.454;2024-03-02T02:28:06;69.82;;;29.83;;
37164;SDS011;23057;48.554;14.454;2024-03-02T02:30:37;65.50;;;28.00;;
37164;SDS011;23057;48.554;14.454;2024-03-02T02:33:08;77.10;;;25.05;;
37164;SDS011;23057;48.554;14.454;2024-03-02T02:35:39;73.88;;;27.27;;
37164;SDS011;23057;48.554;14.454;2024-03-02T02:38:10;75.32;;;28.55;;
37164;SDS011;23057;48.554;14.454;2024-03-02T02:40:41;75.43;;;26.98;;
37164;SDS011;23057;48.554;14.454;2024-03-02T02:43:12;68.20;;;27.85;;
37164;SDS011;23057;48.554;14.454;2024-03-02T02:45:43;61.40;;;26.60;;
37164;SDS011;23057;48.554;14.454;2024-03-02T02:48:14;68.53;;;27.02;;
37164;SDS011;23057;48.554;14.454;2024-03-02T02:50:45;58.13;;;24.60;;
37164;SDS011;23057;48.554;14.454;2024-03-02T02:53:16;78.88;;;31.27;;
37164;SDS011;23057;48.554;14.454;2024-03-02T02:55:47;72.15;;;28.70;;
37164;SDS011;23057;48.554;14.454;2024-03-02T02:58:18;77.53;;;30.90;;
37164;SDS011;23057;48.554;14.454;2024-03-02T03:00:49;74.75;;;28.90;;
37164;SDS011;23057;48.554;14.454;2024-03-02T03:03:20;80.13;;;31.17;;
37164;SDS011;23057;48.554;14.454;2024-03-02T03:05:50;104.68;;;35.65;;
37164;SDS011;23057;48.554;14.454;2024-03-02T03:08:21;92.53;;;32.20;;
37164;SDS011;23057;48.554;14.454;2024-03-02T03:10:53;85.20;;;30.83;;
37164;SDS011;23057;48.554;14.454;2024-03-02T03:13:24;79.50;;;32.92;;
37164;SDS011;23057;48.554;14.454;2024-03-02T03:15:55;97.72;;;34.33;;
37164;SDS011;23057;48.554;14.454;2024-03-02T03:18:26;94.18;;;33.10;;
37164;SDS011;23057;48.554;14.454;2024-03-02T03:20:57;92.93;;;31.88;;
37164;SDS011;23057;48.554;14.454;2024-03-02T03:23:27;83.00;;;30.35;;
37164;SDS011;23057;48.554;14.454;2024-03-02T03:25:58;85.00;;;30.15;;
37164;SDS011;23057;48.554;14.454;2024-03-02T03:28:29;109.35;;;33.47;;
37164;SDS011;23057;48.554;14.454;2024-03-02T03:31:00;85.43;;;32.25;;
37164;SDS011;23057;48.554;14.454;2024-03-02T03:33:32;97.55;;;30.42;;
37164;SDS011;23057;48.554;14.454;2024-03-02T03:36:03;84.05;;;30.58;;
37164;SDS011;23057;48.554;14.454;2024-03-02T03:38:34;86.60;;;31.70;;
37164;SDS011;23057;48.554;14.454;2024-03-02T03:41:05;85.75;;;32.92;;
37164;SDS011;23057;48.554;14.454;2024-03-02T03:43:36;93.10;;;32.13;;
37164;SDS011;23057;48.554;14.454;2024-03-02T03:46:07;85.82;;;29.65;;
37164;SDS011;23057;48.554;14.454;2024-03-02T03:48:38;97.13;;;34.22;;
37164;SDS011;23057;48.554;14.454;2024-03-02T03:51:09;103.60;;;36.95;;
37164;SDS011;23057;48.554;14.454;2024-03-02T03:53:39;105.22;;;33.00;;
37164;SDS011;23057;48.554;14.454;2024-03-02T03:56:10;89.90;;;31.67;;
37164;SDS011;23057;48.554;14.454;2024-03-02T03:58:41;84.63;;;30.90;;
37164;SDS011;23057;48.554;14.454;2024-03-02T04:01:12;96.20;;;33.25;;
37164;SDS011;23057;48.554;14.454;2024-03-02T04:03:43;97.80;;;30.92;;
37164;SDS011;23057;48.554;14.454;2024-03-02T04:06:14;94.95;;;31.92;;
37164;SDS011;23057;48.554;14.454;2024-03-02T04:08:47;86.72;;;28.80;;
37164;SDS011;23057;48.554;14.454;2024-03-02T04:11:18;80.38;;;28.77;;
37164;SDS011;23057;48.554;14.454;2024-03-02T04:13:49;78.45;;;28.75;;
37164;SDS011;23057;48.554;14.454;2024-03-02T04:16:19;72.93;;;26.10;;
37164;SDS011;23057;48.554;14.454;2024-03-02T04:18:50;86.00;;;27.08;;
37164;SDS011;23057;48.554;14.454;2024-03-02T04:21:21;76.70;;;27.98;;
37164;SDS011;23057;48.554;14.454;2024-03-02T04:23:52;88.78;;;28.13;;
37164;SDS011;23057;48.554;14.454;2024-03-02T04:26:27;64.32;;;25.67;;
37164;SDS011;23057;48.554;14.454;2024-03-02T04:28:58;70.68;;;26.33;;
37164;SDS011;23057;48.554;14.454;2024-03-02T04:31:29;81.97;;;27.70;;
37164;SDS011;23057;48.554;14.454;2024-03-02T04:34:00;77.50;;;27.85;;
37164;SDS011;23057;48.554;14.454;2024-03-02T04:36:30;76.53;;;24.45;;
37164;SDS011;23057;48.554;14.454;2024-03-02T04:39:01;73.45;;;25.83;;
37164;SDS011;23057;48.554;14.454;2024-03-02T04:41:32;85.82;;;24.90;;
37164;SDS011;23057;48.554;14.454;2024-03-02T04:44:03;83.25;;;27.58;;
37164;SDS011;23057;48.554;14.454;2024-03-02T04:46:34;82.28;;;28.33;;
37164;SDS011;23057;48.554;14.454;2024-03-02T04:49:05;77.22;;;27.08;;
37164;SDS011;23057;48.554;14.454;2024-03-02T04:51:36;81.35;;;29.25;;
37164;SDS011;23057;48.554;14.454;2024-03-02T04:54:06;80.70;;;27.15;;
37164;SDS011;23057;48.554;14.454;2024-03-02T04:56:37;95.70;;;26.63;;
37164;SDS011;23057;48.554;14.454;2024-03-02T04:59:14;76.63;;;25.25;;
37164;SDS011;23057;48.554;14.454;2024-03-02T05:01:49;81.05;;;25.83;;
37164;SDS011;23057;48.554;14.454;2024-03-02T05:04:20;70.72;;;23.80;;
37164;SDS011;23057;48.554;14.454;2024-03-02T05:06:51;76.22;;;24.38;;
37164;SDS011;23057;48.554;14.454;2024-03-02T05:09:24;73.70;;;24.63;;
37164;SDS011;23057;48.554;14.454;2024-03-02T05:11:55;109.00;;;27.52;;
37164;SDS011;23057;48.554;14.454;2024-03-02T05:14:49;71.75;;;24.20;;
37164;SDS011;23057;48.554;14.454;2024-03-02T05:17:20;82.57;;;28.98;;
37164;SDS011;23057;48.554;14.454;2024-03-02T05:19:51;86.63;;;26.58;;
37164;SDS011;23057;48.554;14.454;2024-03-02T05:22:21;89.70;;;26.77;;
37164;SDS011;23057;48.554;14.454;2024-03-02T05:24:52;73.82;;;27.02;;
37164;SDS011;23057;48.554;14.454;2024-03-02T05:27:23;87.50;;;29.08;;
37164;SDS011;23057;48.554;14.454;2024-03-02T05:29:54;80.63;;;26.63;;
37164;SDS011;23057;48.554;14.454;2024-03-02T05:32:25;80.93;;;26.23;;
37164;SDS011;23057;48.554;14.454;2024-03-02T05:34:56;93.03;;;28.25;;
37164;SDS011;23057;48.554;14.454;2024-03-02T05:37:26;76.85;;;26.58;;
37164;SDS011;23057;48.554;14.454;2024-03-02T05:39:58;80.88;;;27.80;;
37164;SDS011;23057;48.554;14.454;2024-03-02T05:42:29;82.60;;;29.05;;
37164;SDS011;23057;48.554;14.454;2024-03-02T05:45:00;79.72;;;28.92;;
37164;SDS011;23057;48.554;14.454;2024-03-02T05:47:31;97.75;;;33.05;;
37164;SDS011;23057;48.554;14.454;2024-03-02T05:50:03;122.70;;;46.35;;
37164;SDS011;23057;48.554;14.454;2024-03-02T05:52:34;94.28;;;33.55;;
37164;SDS011;23057;48.554;14.454;2024-03-02T05:55:05;83.47;;;31.75;;
37164;SDS011;23057;48.554;14.454;2024-03-02T05:57:37;94.43;;;29.55;;
37164;SDS011;23057;48.554;14.454;2024-03-02T06:00:14;66.75;;;26.70;;
37164;SDS011;23057;48.554;14.454;2024-03-02T06:02:47;62.15;;;26.33;;
37164;SDS011;23057;48.554;14.454;2024-03-02T06:05:18;59.08;;;23.95;;
37164;SDS011;23057;48.554;14.454;2024-03-02T06:07:48;61.88;;;23.13;;
37164;SDS011;23057;48.554;14.454;2024-03-02T06:10:19;53.85;;;23.10;;
37164;SDS011;23057;48.554;14.454;2024-03-02T06:12:50;56.42;;;29.48;;
37164;SDS011;23057;48.554;14.454;2024-03-02T06:15:21;52.67;;;21.90;;
37164;SDS011;23057;48.554;14.454;2024-03-02T06:17:52;51.05;;;20.48;;
37164;SDS011;23057;48.554;14.454;2024-03-02T06:20:23;48.05;;;19.13;;
37164;SDS011;23057;48.554;14.454;2024-03-02T06:22:56;46.30;;;20.00;;
37164;SDS011;23057;48.554;14.454;2024-03-02T06:25:27;55.22;;;21.02;;
37164;SDS011;23057;48.554;14.454;2024-03-02T06:27:58;41.58;;;17.77;;
37164;SDS011;23057;48.554;14.454;2024-03-02T06:30:29;53.75;;;21.58;;
37164;SDS011;23057;48.554;14.454;2024-03-02T06:33:00;48.83;;;21.23;;
37164;SDS011;23057;48.554;14.454;2024-03-02T06:35:31;43.42;;;17.10;;
37164;SDS011;23057;48.554;14.454;2024-03-02T06:38:02;42.28;;;16.92;;
37164;SDS011;23057;48.554;14.454;2024-03-02T06:40:33;45.72;;;19.33;;
37164;SDS011;23057;48.554;14.454;2024-03-02T06:43:04;41.45;;;18.95;;
37164;SDS011;23057;48.554;14.454;2024-03-02T06:45:35;45.40;;;19.88;;
37164;SDS011;23057;48.554;14.454;2024-03-02T06:48:06;43.55;;;21.08;;
37164;SDS011;23057;48.554;14.454;2024-03-02T06:50:37;45.70;;;20.20;;
37164;SDS011;23057;48.554;14.454;2024-03-02T06:53:08;38.40;;;17.70;;
37164;SDS011;23057;48.554;14.454;2024-03-02T06:55:39;36.47;;;16.85;;
37164;SDS011;23057;48.554;14.454;2024-03-02T06:58:10;34.08;;;16.85;;
37164;SDS011;23057;48.554;14.454;2024-03-02T07:00:42;38.67;;;17.00;;
37164;SDS011;23057;48.554;14.454;2024-03-02T07:03:17;33.65;;;16.92;;
37164;SDS011;23057;48.554;14.454;2024-03-02T07:05:48;36.85;;;17.35;;
37164;SDS011;23057;48.554;14.454;2024-03-02T07:08:19;35.97;;;16.25;;
37164;SDS011;23057;48.554;14.454;2024-03-02T07:10:50;38.55;;;17.05;;
37164;SDS011;23057;48.554;14.454;2024-03-02T07:13:20;36.80;;;17.40;;
37164;SDS011;23057;48.554;14.454;2024-03-02T07:15:51;39.67;;;18.65;;
37164;SDS011;23057;48.554;14.454;2024-03-02T07:18:40;37.47;;;16.55;;
37164;SDS011;23057;48.554;14.454;2024-03-02T07:21:12;41.88;;;19.58;;
37164;SDS011;23057;48.554;14.454;2024-03-02T07:23:43;39.97;;;17.85;;
37164;SDS011;23057;48.554;14.454;2024-03-02T07:26:14;39.20;;;18.90;;
37164;SDS011;23057;48.554;14.454;2024-03-02T07:28:46;36.10;;;17.13;;
37164;SDS011;23057;48.554;14.454;2024-03-02T07:31:18;41.20;;;18.52;;
37164;SDS011;23057;48.554;14.454;2024-03-02T07:33:49;36.67;;;17.75;;
37164;SDS011;23057;48.554;14.454;2024-03-02T07:36:20;36.83;;;19.33;;
37164;SDS011;23057;48.554;14.454;2024-03-02T07:38:51;38.58;;;19.30;;
37164;SDS011;23057;48.554;14.454;2024-03-02T07:41:21;40.85;;;18.83;;
37164;SDS011;23057;48.554;14.454;2024-03-02T07:43:52;37.85;;;17.42;;
37164;SDS011;23057;48.554;14.454;2024-03-02T07:46:23;35.30;;;16.48;;
37164;SDS011;23057;48.554;14.454;2024-03-02T07:48:54;45.80;;;19.23;;
37164;SDS011;23057;48.554;14.454;2024-03-02T07:51:25;39.72;;;17.85;;
37164;SDS011;23057;48.554;14.454;2024-03-02T07:53:56;39.45;;;16.27;;
37164;SDS011;23057;48.554;14.454;2024-03-02T07:56:27;43.13;;;15.65;;
37164;SDS011;23057;48.554;14.454;2024-03-02T07:58:58;35.42;;;15.57;;
37164;SDS011;23057;48.554;14.454;2024-03-02T08:01:31;30.50;;;14.63;;
37164;SDS011;23057;48.554;14.454;2024-03-02T08:04:03;33.60;;;15.93;;
37164;SDS011;23057;48.554;14.454;2024-03-02T08:06:34;35.78;;;13.93;;
37164;SDS011;23057;48.554;14.454;2024-03-02T08:09:05;34.65;;;15.68;;
37164;SDS011;23057;48.554;14.454;2024-03-02T08:11:39;32.33;;;15.95;;
37164;SDS011;23057;48.554;14.454;2024-03-02T08:14:10;31.10;;;14.85;;
37164;SDS011;23057;48.554;14.454;2024-03-02T08:16:41;26.45;;;15.23;;
37164;SDS011;23057;48.554;14.454;2024-03-02T08:19:12;26.58;;;13.45;;
37164;SDS011;23057;48.554;14.454;2024-03-02T08:21:43;26.67;;;12.93;;
37164;SDS011;23057;48.554;14.454;2024-03-02T08:24:14;26.67;;;13.13;;
37164;SDS011;23057;48.554;14.454;2024-03-02T08:26:45;29.95;;;13.05;;
37164;SDS011;23057;48.554;14.454;2024-03-02T08:29:17;25.65;;;12.68;;
37164;SDS011;23057;48.554;14.454;2024-03-02T08:31:47;28.58;;;13.20;;
37164;SDS011;23057;48.554;14.454;2024-03-02T08:34:19;30.80;;;13.60;;
37164;SDS011;23057;48.554;14.454;2024-03-02T08:36:50;27.20;;;12.93;;
37164;SDS011;23057;48.554;14.454;2024-03-02T08:39:21;30.90;;;14.55;;
37164;SDS011;23057;48.554;14.454;2024-03-02T08:41:52;29.70;;;13.80;;
37164;SDS011;23057;48.554;14.454;2024-03-02T08:44:23;29.85;;;15.40;;
37164;SDS011;23057;48.554;14.454;2024-03-02T08:46:54;30.10;;;13.48;;
37164;SDS011;23057;48.554;14.454;2024-03-02T08:49:25;26.73;;;14.43;;
37164;SDS011;23057;48.554;14.454;2024-03-02T08:51:56;26.35;;;13.55;;
37164;SDS011;23057;48.554;14.454;2024-03-02T08:54:27;32.90;;;14.77;;
37164;SDS011;23057;48.554;14.454;2024-03-02T08:56:58;30.73;;;14.38;;
37164;SDS011;23057;48.554;14.454;2024-03-02T08:59:28;24.98;;;12.45;;
37164;SDS011;23057;48.554;14.454;2024-03-02T09:02:00;28.38;;;12.95;;
37164;SDS011;23057;48.554;14.454;2024-03-02T09:04:30;29.42;;;14.27;;
37164;SDS011;23057;48.554;14.454;2024-03-02T09:07:01;30.08;;;13.52;;
37164;SDS011;23057;48.554;14.454;2024-03-02T09:09:33;27.02;;;13.18;;
37164;SDS011;23057;48.554;14.454;2024-03-02T09:12:04;26.98;;;12.57;;
37164;SDS011;23057;48.554;14.454;2024-03-02T09:14:37;26.85;;;13.70;;
37164;SDS011;23057;48.554;14.454;2024-03-02T09:17:08;27.58;;;13.43;;
37164;SDS011;23057;48.554;14.454;2024-03-02T09:19:40;28.30;;;14.02;;
37164;SDS011;23057;48.554;14.454;2024-03-02T09:22:11;25.65;;;12.77;;
37164;SDS011;23057;48.554;14.454;2024-03-02T09:24:43;24.42;;;12.20;;
37164;SDS011;23057;48.554;14.454;2024-03-02T09:27:14;24.90;;;13.15;;
37164;SDS011;23057;48.554;14.454;2024-03-02T09:29:44;27.15;;;12.25;;
37164;SDS011;23057;48.554;14.454;2024-03-02T09:32:15;22.00;;;12.02;;
37164;SDS011;23057;48.554;14.454;2024-03-02T09:34:46;25.70;;;12.70;;
37164;SDS011;23057;48.554;14.454;2024-03-02T09:37:18;23.35;;;11.98;;
37164;SDS011;23057;48.554;14.454;2024-03-02T09:39:49;29.75;;;14.23;;
37164;SDS011;23057;48.554;14.454;2024-03-02T09:42:20;25.70;;;13.43;;
37164;SDS011;23057;48.554;14.454;2024-03-02T09:44:51;20.33;;;11.77;;
37164;SDS011;23057;48.554;14.454;2024-03-02T09:47:23;25.35;;;13.13;;
37164;SDS011;23057;48.554;14.454;2024-03-02T09:49:54;22.33;;;11.82;;
37164;SDS011;23057;48.554;14.454;2024-03-02T09:52:25;23.42;;;12.63;;
37164;SDS011;23057;48.554;14.454;2024-03-02T09:54:57;23.85;;;13.52;;
37164;SDS011;23057;48.554;14.454;2024-03-02T09:57:28;23.38;;;12.02;;
37164;SDS011;23057;48.554;14.454;2024-03-02T09:59:59;25.83;;;12.90;;
37164;SDS011;23057;48.554;14.454;2024-03-02T10:02:30;21.90;;;11.98;;
37164;SDS011;23057;48.554;14.454;2024-03-02T10:05:01;25.77;;;13.30;;
37164;SDS011;23057;48.554;14.454;2024-03-02T10:07:34;21.77;;;11.25;;
37164;SDS011;23057;48.554;14.454;2024-03-02T10:10:14;23.00;;;10.95;;
37164;SDS011;23057;48.554;14.454;2024-03-02T10:12:46;23.58;;;12.15;;
37164;SDS011;23057;48.554;14.454;2024-03-02T10:15:23;21.48;;;12.60;;
37164;SDS011;23057;48.554;14.454;2024-03-02T10:17:54;23.27;;;12.45;;
37164;SDS011;23057;48.554;14.454;2024-03-02T10:20:25;21.67;;;11.40;;
37164;SDS011;23057;48.554;14.454;2024-03-02T10:23:15;23.15;;;12.10;;
37164;SDS011;23057;48.554;14.454;2024-03-02T10:25:47;25.38;;;12.43;;
37164;SDS011;23057;48.554;14.454;2024-03-02T10:28:18;24.48;;;13.73;;
37164;SDS011;23057;48.554;14.454;2024-03-02T10:30:48;21.23;;;11.60;;
37164;SDS011;23057;48.554;14.454;2024-03-02T10:33:22;21.45;;;11.68;;
37164;SDS011;23057;48.554;14.454;2024-03-02T10:35:54;25.83;;;12.23;;
37164;SDS011;23057;48.554;14.454;2024-03-02T10:38:26;22.40;;;11.38;;
37164;SDS011;23057;48.554;14.454;2024-03-02T10:40:58;23.00;;;11.30;;
37164;SDS011;23057;48.554;14.454;2024-03-02T10:43:31;19.42;;;11.93;;
37164;SDS011;23057;48.554;14.454;2024-03-02T10:46:02;21.08;;;11.82;;
37164;SDS011;23057;48.554;14.454;2024-03-02T10:48:33;24.33;;;11.55;;
37164;SDS011;23057;48.554;14.454;2024-03-02T10:51:10;19.13;;;11.15;;
37164;SDS011;23057;48.554;14.454;2024-03-02T10:53:42;21.20;;;11.70;;
37164;SDS011;23057;48.554;14.454;2024-03-02T10:56:14;25.50;;;11.23;;
37164;SDS011;23057;48.554;14.454;2024-03-02T11:02:02;20.23;;;11.63;;
37164;SDS011;23057;48.554;14.454;2024-03-02T11:04:36;22.33;;;11.52;;
37164;SDS011;23057;48.554;14.454;2024-03-02T11:07:12;17.52;;;9.55;;
37164;SDS011;23057;48.554;14.454;2024-03-02T11:09:45;19.80;;;10.27;;
37164;SDS011;23057;48.554;14.454;2024-03-02T11:12:29;15.25;;;9.20;;
37164;SDS011;23057;48.554;14.454;2024-03-02T11:15:14;21.08;;;10.15;;
37164;SDS011;23057;48.554;14.454;2024-03-02T11:17:49;19.48;;;9.55;;
37164;SDS011;23057;48.554;14.454;2024-03-02T11:20:22;19.20;;;10.38;;
37164;SDS011;23057;48.554;14.454;2024-03-02T11:22:54;17.25;;;9.88;;
37164;SDS011;23057;48.554;14.454;2024-03-02T11:25:26;21.23;;;10.98;;
37164;SDS011;23057;48.554;14.454;2024-03-02T11:27:58;17.65;;;10.50;;
37164;SDS011;23057;48.554;14.454;2024-03-02T11:33:07;21.50;;;12.38;;
37164;SDS011;23057;48.554;14.454;2024-03-02T11:35:42;17.63;;;10.02;;
37164;SDS011;23057;48.554;14.454;2024-03-02T11:38:17;19.25;;;11.15;;
37164;SDS011;23057;48.554;14.454;2024-03-02T11:40:49;16.50;;;9.70;;
37164;SDS011;23057;48.554;14.454;2024-03-02T11:43:20;18.17;;;10.10;;
37164;SDS011;23057;48.554;14.454;2024-03-02T11:45:56;22.50;;;11.52;;
37164;SDS011;23057;48.554;14.454;2024-03-02T11:48:35;19.83;;;9.93;;
37164;SDS011;23057;48.554;14.454;2024-03-02T11:51:08;17.08;;;9.00;;
37164;SDS011;23057;48.554;14.454;2024-03-02T11:53:39;23.83;;;11.77;;
37164;SDS011;23057;48.554;14.454;2024-03-02T11:56:12;18.05;;;10.25;;
37164;SDS011;23057;48.554;14.454;2024-03-02T11:58:46;25.52;;;10.95;;
37164;SDS011;23057;48.554;14.454;2024-03-02T12:01:19;17.17;;;9.32;;
37164;SDS011;23057;48.554;14.454;2024-03-02T12:03:50;19.77;;;9.82;;
37164;SDS011;23057;48.554;14.454;2024-03-02T12:06:22;18.45;;;10.15;;
37164;SDS011;23057;48.554;14.454;2024-03-02T12:08:54;15.93;;;9.57;;
37164;SDS011;23057;48.554;14.454;2024-03-02T12:11:27;20.38;;;9.73;;
37164;SDS011;23057;48.554;14.454;2024-03-02T12:13:58;18.23;;;10.00;;
37164;SDS011;23057;48.554;14.454;2024-03-02T12:16:29;17.58;;;8.48;;
37164;SDS011;23057;48.554;14.454;2024-03-02T12:19:00;19.38;;;10.45;;
37164;SDS011;23057;48.554;14.454;2024-03-02T12:21:30;18.77;;;11.05;;
37164;SDS011;23057;48.554;14.454;2024-03-02T12:24:02;18.35;;;9.60;;
37164;SDS011;23057;48.554;14.454;2024-03-02T12:26:33;18.05;;;9.55;;
37164;SDS011;23057;48.554;14.454;2024-03-02T12:29:04;19.88;;;10.48;;
37164;SDS011;23057;48.554;14.454;2024-03-02T12:31:35;17.38;;;9.55;;
37164;SDS011;23057;48.554;14.454;2024-03-02T12:34:06;20.42;;;9.77;;
37164;SDS011;23057;48.554;14.454;2024-03-02T12:36:38;18.92;;;10.23;;
37164;SDS011;23057;48.554;14.454;2024-03-02T12:39:11;18.58;;;10.40;;
37164;SDS011;23057;48.554;14.454;2024-03-02T12:41:42;19.67;;;11.20;;
37164;SDS011;23057;48.554;14.454;2024-03-02T12:44:13;18.00;;;10.35;;
37164;SDS011;23057;48.554;14.454;2024-03-02T12:46:44;19.85;;;10.18;;
37164;SDS011;23057;48.554;14.454;2024-03-02T12:49:17;20.95;;;9.88;;
37164;SDS011;23057;48.554;14.454;2024-03-02T12:51:53;19.98;;;10.32;;
37164;SDS011;23057;48.554;14.454;2024-03-02T12:54:24;24.25;;;11.70;;
37164;SDS011;23057;48.554;14.454;2024-03-02T12:56:56;21.52;;;10.48;;
37164;SDS011;23057;48.554;14.454;2024-03-02T12:59:27;23.50;;;10.25;;
37164;SDS011;23057;48.554;14.454;2024-03-02T13:01:58;20.42;;;10.65;;
37164;SDS011;23057;48.554;14.454;2024-03-02T13:04:31;22.60;;;12.45;;
37164;SDS011;23057;48.554;14.454;2024-03-02T13:07:02;20.15;;;12.10;;
37164;SDS011;23057;48.554;14.454;2024-03-02T13:09:33;22.27;;;10.82;;
37164;SDS011;23057;48.554;14.454;2024-03-02T13:12:05;15.85;;;9.50;;
37164;SDS011;23057;48.554;14.454;2024-03-02T13:14:36;20.38;;;10.07;;
37164;SDS011;23057;48.554;14.454;2024-03-02T13:17:08;17.48;;;9.85;;
37164;SDS011;23057;48.554;14.454;2024-03-02T13:20:01;22.80;;;10.30;;
37164;SDS011;23057;48.554;14.454;2024-03-02T13:22:31;17.38;;;9.77;;
37164;SDS011;23057;48.554;14.454;2024-03-02T13:25:02;16.63;;;10.48;;
37164;SDS011;23057;48.554;14.454;2024-03-02T13:27:33;23.35;;;11.85;;
37164;SDS011;23057;48.554;14.454;2024-03-02T13:30:04;27.33;;;10.25;;
37164;SDS011;23057;48.554;14.454;2024-03-02T13:32:39;18.52;;;10.57;;
37164;SDS011;23057;48.554;14.454;2024-03-02T13:35:09;21.23;;;11.93;;
37164;SDS011;23057;48.554;14.454;2024-03-02T13:37:41;22.85;;;11.13;;
37164;SDS011;23057;48.554;14.454;2024-03-02T13:40:12;19.35;;;9.88;;
37164;SDS011;23057;48.554;14.454;2024-03-02T13:42:47;18.58;;;10.52;;
37164;SDS011;23057;48.554;14.454;2024-03-02T13:45:20;16.08;;;10.27;;
37164;SDS011;23057;48.554;14.454;2024-03-02T13:47:51;16.40;;;8.98;;
37164;SDS011;23057;48.554;14.454;2024-03-02T13:50:22;18.08;;;9.57;;
37164;SDS011;23057;48.554;14.454;2024-03-02T13:52:53;21.55;;;8.32;;
37164;SDS011;23057;48.554;14.454;2024-03-02T13:55:24;15.15;;;8.23;;
37164;SDS011;23057;48.554;14.454;2024-03-02T13:57:55;13.48;;;7.70;;
37164;SDS011;23057;48.554;14.454;2024-03-02T14:00:26;12.40;;;7.63;;
37164;SDS011;23057;48.554;14.454;2024-03-02T14:02:57;15.02;;;8.73;;
37164;SDS011;23057;48.554;14.454;2024-03-02T14:05:28;15.20;;;9.80;;
37164;SDS011;23057;48.554;14.454;2024-03-02T14:07:59;15.73;;;7.60;;
37164;SDS011;23057;48.554;14.454;2024-03-02T14:10:30;13.35;;;7.50;;
37164;SDS011;23057;48.554;14.454;2024-03-02T14:13:01;11.82;;;8.25;;
37164;SDS011;23057;48.554;14.454;2024-03-02T14:15:32;15.57;;;7.75;;
37164;SDS011;23057;48.554;14.454;2024-03-02T14:18:03;12.40;;;7.45;;
37164;SDS011;23057;48.554;14.454;2024-03-02T14:20:35;13.60;;;7.82;;
37164;SDS011;23057;48.554;14.454;2024-03-02T14:23:07;11.35;;;6.35;;
37164;SDS011;23057;48.554;14.454;2024-03-02T14:25:40;11.38;;;7.07;;
37164;SDS011;23057;48.554;14.454;2024-03-02T14:28:10;13.32;;;7.70;;
37164;SDS011;23057;48.554;14.454;2024-03-02T14:30:42;15.30;;;9.02;;
37164;SDS011;23057;48.554;14.454;2024-03-02T14:33:13;12.63;;;6.72;;
37164;SDS011;23057;48.554;14.454;2024-03-02T14:35:44;12.85;;;6.85;;
37164;SDS011;23057;48.554;14.454;2024-03-02T14:38:15;12.98;;;7.25;;
37164;SDS011;23057;48.554;14.454;2024-03-02T14:40:46;13.50;;;6.55;;
37164;SDS011;23057;48.554;14.454;2024-03-02T14:43:17;14.80;;;7.35;;
37164;SDS011;23057;48.554;14.454;2024-03-02T14:45:48;14.60;;;8.27;;
37164;SDS011;23057;48.554;14.454;2024-03-02T14:48:19;14.98;;;8.25;;